Time;durP1;ratioP1;P1;durP2;ratioP2;P2;SDS_P1;SDS_P2;PMS_P1;PMS_P2;Temp;Humidity;BMP_temperature;BMP_pressure;BME280_temperature;BME280_humidity;BME280_pressure;Samples;Min_cycle;Max_cycle;Signal;HPM_P1;HPM_P2
2023/07/05 00:00:21;;;;;;;22.70;16.60;;;;;;;15.40;56.63;100138.00;129484;1270;107537;-77
2023/07/05 00:03:51;;;;;;;22.60;16.00;;;;;;;15.37;56.86;100138.41;129487;1270;107364;-77
2023/07/05 00:06:57;;;;;;;20.30;17.80;;;;;;;15.33;56.76;100138.31;129533;1268;107142;-77
2023/07/05 00:10:02;;;;;;;22.40;16.30;;;;;;;15.35;57.12;100134.70;129465;1270;107807;-76
2023/07/05 00:13:08;;;;;;;22.40;16.20;;;;;;;15.39;57.01;100137.11;129491;1270;107561;-77
2023/07/05 00:16:15;;;;;;;21.20;15.70;;;;;;;15.41;57.26;100138.45;129497;1271;107277;-76
2023/07/05 00:19:20;;;;;;;22.10;16.40;;;;;;;15.40;57.46;100136.55;129544;1271;107560;-77
2023/07/05 00:22:27;;;;;;;21.10;15.90;;;;;;;15.39;57.68;100140.71;129447;1268;106095;-77
2023/07/05 00:25:32;;;;;;;20.10;15.50;;;;;;;15.34;57.52;100139.44;129366;1270;107555;-76
2023/07/05 00:28:38;;;;;;;20.40;15.20;;;;;;;15.31;57.75;100144.79;129367;1273;107537;-77
2023/07/05 00:31:43;;;;;;;24.00;15.80;;;;;;;15.28;57.88;100142.34;129314;1268;107335;-77
2023/07/05 00:34:49;;;;;;;22.60;15.80;;;;;;;15.24;57.98;100138.14;129409;1268;106603;-77
2023/07/05 00:37:54;;;;;;;21.60;15.90;;;;;;;15.20;57.81;100136.54;129628;1268;107266;-77
2023/07/05 00:41:00;;;;;;;21.90;16.10;;;;;;;15.16;57.88;100131.77;129509;1271;152681;-77
2023/07/05 00:44:06;;;;;;;22.50;16.20;;;;;;;15.11;58.09;100136.34;129669;1270;108416;-77
2023/07/05 00:47:23;;;;;;;21.90;16.00;;;;;;;15.07;58.29;100135.58;129545;1271;107544;-77
2023/07/05 00:50:38;;;;;;;22.80;15.90;;;;;;;15.04;58.35;100130.73;129521;1270;106497;-78
2023/07/05 00:53:45;;;;;;;20.40;15.70;;;;;;;15.00;58.31;100131.96;129549;1268;107739;-76
2023/07/05 00:56:55;;;;;;;23.30;16.20;;;;;;;14.95;58.33;100135.40;129521;1271;107909;-77
2023/07/05 01:00:08;;;;;;;22.20;15.60;;;;;;;14.90;58.52;100134.10;129529;1270;107451;-77
2023/07/05 01:03:20;;;;;;;20.10;15.70;;;;;;;14.85;58.63;100134.83;129497;1271;107255;-76
2023/07/05 01:06:27;;;;;;;22.40;16.20;;;;;;;14.79;58.68;100136.38;129526;1270;107550;-77
2023/07/05 01:09:33;;;;;;;23.20;16.60;;;;;;;14.77;59.08;100135.72;129580;1270;107583;-77
2023/07/05 01:12:46;;;;;;;21.70;15.80;;;;;;;14.74;58.93;100132.40;129554;1270;108010;-77
2023/07/05 01:16:03;;;;;;;21.20;15.30;;;;;;;14.68;58.89;100131.04;129560;1271;107417;-77
2023/07/05 01:19:25;;;;;;;21.90;16.50;;;;;;;14.63;59.13;100132.65;129516;1272;107537;-77
2023/07/05 01:22:59;;;;;;;25.50;15.70;;;;;;;14.58;59.09;100132.65;129613;1270;107534;-77
2023/07/05 01:26:31;;;;;;;22.20;16.10;;;;;;;14.54;59.15;100129.64;129356;1274;107379;-77
2023/07/05 01:30:17;;;;;;;24.60;15.60;;;;;;;14.49;59.24;100125.46;129551;1271;107223;-77
2023/07/05 01:33:29;;;;;;;22.90;15.90;;;;;;;14.44;59.33;100127.15;129541;1268;107126;-77
2023/07/05 01:36:36;;;;;;;20.70;14.90;;;;;;;14.39;59.37;100126.95;129471;1270;105521;-77
2023/07/05 01:39:42;;;;;;;23.70;15.80;;;;;;;14.37;59.41;100134.52;129610;1268;107558;-77
2023/07/05 01:42:50;;;;;;;19.40;14.70;;;;;;;14.32;59.53;100129.59;129532;1271;107559;-77
2023/07/05 01:46:09;;;;;;;21.10;16.00;;;;;;;14.27;59.66;100129.29;129547;1271;107529;-77
2023/07/05 01:49:33;;;;;;;21.70;14.10;;;;;;;14.22;59.73;100126.48;129463;1270;107663;-77
2023/07/05 01:52:45;;;;;;;21.70;15.30;;;;;;;14.19;59.87;100129.83;129569;1270;107527;-77
2023/07/05 01:55:59;;;;;;;21.10;15.60;;;;;;;14.22;59.94;100132.09;129542;1270;107586;-77
2023/07/05 01:59:08;;;;;;;22.80;15.80;;;;;;;14.19;60.20;100136.84;129236;1271;107593;-77
2023/07/05 02:02:16;;;;;;;21.30;15.60;;;;;;;14.21;60.14;100135.40;129523;1270;107678;-76
2023/07/05 02:05:23;;;;;;;22.50;15.90;;;;;;;14.21;59.98;100132.37;129523;1268;107290;-76
2023/07/05 02:08:36;;;;;;;23.70;16.50;;;;;;;14.19;60.05;100134.92;129596;1270;107546;-77
2023/07/05 02:11:42;;;;;;;23.30;15.80;;;;;;;14.15;60.22;100138.92;129278;1274;108705;-77
2023/07/05 02:14:48;;;;;;;22.10;15.20;;;;;;;14.08;60.04;100140.17;129276;1273;107515;-77
2023/07/05 02:17:53;;;;;;;24.50;15.70;;;;;;;14.02;60.29;100140.79;129325;1274;107550;-76
2023/07/05 02:20:59;;;;;;;21.30;15.50;;;;;;;14.00;60.37;100137.04;129274;1273;107707;-77
2023/07/05 02:24:05;;;;;;;21.80;15.70;;;;;;;13.99;60.51;100139.54;129542;1271;107602;-77
2023/07/05 02:27:12;;;;;;;21.50;16.00;;;;;;;13.94;60.58;100140.10;129511;1268;107337;-77
2023/07/05 02:30:20;;;;;;;21.30;15.00;;;;;;;13.93;60.78;100135.39;129522;1268;107543;-77
2023/07/05 02:33:25;;;;;;;23.70;16.10;;;;;;;13.92;60.64;100137.14;129405;1271;107286;-77
2023/07/05 02:36:31;;;;;;;21.70;15.70;;;;;;;13.91;60.73;100136.00;129259;1268;107806;-77
2023/07/05 02:39:36;;;;;;;22.10;15.90;;;;;;;13.89;60.76;100135.98;129590;1271;107279;-77
2023/07/05 02:42:42;;;;;;;22.90;16.20;;;;;;;13.89;60.80;100132.42;129508;1270;107501;-77
2023/07/05 02:45:48;;;;;;;21.60;15.70;;;;;;;13.91;60.82;100131.69;129535;1281;107381;-77
2023/07/05 02:48:55;;;;;;;22.30;15.60;;;;;;;13.91;60.91;100134.88;129481;1273;106476;-77
2023/07/05 02:52:01;;;;;;;21.70;16.70;;;;;;;13.88;60.99;100135.25;129492;1271;108195;-77
2023/07/05 02:55:08;;;;;;;22.80;17.00;;;;;;;13.84;61.29;100135.48;129577;1268;107177;-77
2023/07/05 02:58:13;;;;;;;22.10;16.40;;;;;;;13.78;61.37;100137.16;129522;1281;107549;-77
2023/07/05 03:01:19;;;;;;;21.80;16.60;;;;;;;13.72;61.39;100141.52;129545;1268;107396;-77
2023/07/05 03:04:27;;;;;;;22.70;16.20;;;;;;;13.71;61.52;100141.23;129529;1270;107436;-77
2023/07/05 03:07:33;;;;;;;22.00;15.30;;;;;;;13.73;61.61;100143.05;129594;1270;107502;-77
2023/07/05 03:10:40;;;;;;;21.30;14.80;;;;;;;13.76;61.62;100145.59;129514;1271;107564;-77
2023/07/05 03:13:46;;;;;;;21.50;14.80;;;;;;;13.82;61.72;100146.52;129455;1274;107594;-77
2023/07/05 03:16:51;;;;;;;21.90;15.20;;;;;;;13.87;61.75;100147.52;129480;1271;107207;-77
2023/07/05 03:19:59;;;;;;;19.40;14.80;;;;;;;13.94;61.59;100150.51;129518;1268;107566;-76
2023/07/05 03:23:04;;;;;;;23.10;15.80;;;;;;;13.98;61.65;100150.48;129573;1270;108763;-76
2023/07/05 03:26:10;;;;;;;20.80;15.30;;;;;;;14.13;61.71;100151.65;129274;1274;107509;-77
2023/07/05 03:29:16;;;;;;;21.90;15.10;;;;;;;14.30;61.66;100150.58;129539;1271;107242;-76
2023/07/05 03:32:21;;;;;;;20.40;15.00;;;;;;;14.46;61.70;100159.97;129536;1270;107570;-76
2023/07/05 03:35:27;;;;;;;22.30;15.90;;;;;;;14.63;61.64;100161.36;129380;1268;107539;-76
2023/07/05 03:38:34;;;;;;;21.50;15.50;;;;;;;14.78;61.79;100163.20;129562;1281;107540;-76
2023/07/05 03:41:39;;;;;;;21.30;15.20;;;;;;;14.91;61.76;100163.11;129533;1271;107680;-77
2023/07/05 03:44:46;;;;;;;20.40;15.10;;;;;;;15.03;61.77;100161.45;129503;1268;107622;-77
2023/07/05 03:47:52;;;;;;;20.30;14.70;;;;;;;15.18;61.79;100162.05;129528;1271;107548;-77
2023/07/05 03:50:59;;;;;;;22.50;15.50;;;;;;;15.35;61.75;100161.38;129481;1270;108720;-77
2023/07/05 03:54:05;;;;;;;21.50;15.70;;;;;;;15.52;61.86;100160.73;129608;1270;107562;-77
2023/07/05 03:57:10;;;;;;;22.90;16.50;;;;;;;15.59;61.59;100156.85;129498;1268;108702;-77
2023/07/05 04:00:18;;;;;;;20.00;15.60;;;;;;;15.76;61.83;100156.91;129491;1281;106889;-77
2023/07/05 04:03:24;;;;;;;19.90;15.40;;;;;;;15.99;61.87;100163.75;129575;1270;107527;-77
2023/07/05 04:06:32;;;;;;;21.20;15.70;;;;;;;16.18;61.78;100163.23;129536;1272;107553;-76
2023/07/05 04:09:37;;;;;;;24.70;17.40;;;;;;;16.37;61.63;100164.65;129683;1270;107530;-76
2023/07/05 04:12:43;;;;;;;26.50;16.10;;;;;;;16.48;61.59;100166.16;129515;1271;106047;-77
2023/07/05 04:15:57;;;;;;;24.60;16.90;;;;;;;16.63;61.59;100164.14;129474;1272;107374;-77
2023/07/05 04:19:03;;;;;;;21.90;15.80;;;;;;;16.80;61.64;100169.09;129493;1270;107397;-78
2023/07/05 04:22:09;;;;;;;21.10;16.20;;;;;;;17.00;61.80;100172.15;129547;1268;108132;-76
2023/07/05 04:25:15;;;;;;;22.90;16.10;;;;;;;17.19;61.62;100171.48;129554;1280;107619;-77
2023/07/05 04:28:20;;;;;;;22.10;15.70;;;;;;;17.36;61.73;100174.19;129531;1271;107448;-76
2023/07/05 04:31:29;;;;;;;20.20;15.40;;;;;;;17.54;61.68;100171.04;129479;1274;107445;-76
2023/07/05 04:34:34;;;;;;;19.40;15.40;;;;;;;17.77;61.84;100166.81;129507;1271;107537;-77
2023/07/05 04:37:40;;;;;;;20.70;15.70;;;;;;;17.96;61.81;100169.55;129550;1271;107559;-76
2023/07/05 04:40:45;;;;;;;23.30;16.70;;;;;;;18.12;61.72;100165.94;129477;1270;107536;-76
2023/07/05 04:43:52;;;;;;;23.50;16.60;;;;;;;18.27;61.41;100163.96;129482;1281;106684;-77
2023/07/05 04:46:57;;;;;;;20.30;15.70;;;;;;;18.43;61.66;100161.33;129544;1268;107430;-77
2023/07/05 04:50:03;;;;;;;23.40;15.90;;;;;;;18.62;61.77;100161.17;129552;1272;107542;-77
2023/07/05 04:53:09;;;;;;;20.00;15.60;;;;;;;18.78;61.91;100162.58;129643;1282;107510;-77
2023/07/05 04:56:15;;;;;;;19.50;15.70;;;;;;;18.97;61.73;100158.18;129396;1268;107572;-78
2023/07/05 04:59:21;;;;;;;22.10;16.10;;;;;;;19.14;61.56;100159.89;129427;1274;107564;-77
2023/07/05 05:02:27;;;;;;;22.80;16.90;;;;;;;19.29;61.65;100162.98;129396;1272;108388;-77
2023/07/05 05:05:33;;;;;;;22.50;17.20;;;;;;;19.47;61.52;100160.99;129491;1281;105943;-77
2023/07/05 05:08:38;;;;;;;21.50;16.50;;;;;;;19.66;61.64;100161.76;129587;1270;107548;-77
2023/07/05 05:11:44;;;;;;;20.40;16.40;;;;;;;19.86;61.52;100161.93;129530;1270;107497;-77
2023/07/05 05:14:50;;;;;;;24.80;16.70;;;;;;;20.04;61.18;100163.13;129501;1271;107593;-77
2023/07/05 05:17:57;;;;;;;23.20;16.40;;;;;;;20.23;61.01;100158.71;129510;1270;107572;-77
2023/07/05 05:21:02;;;;;;;22.60;16.70;;;;;;;20.42;60.76;100155.95;129511;1270;107250;-77
2023/07/05 05:24:09;;;;;;;20.10;16.20;;;;;;;20.59;60.63;100158.04;129571;1280;107582;-77
2023/07/05 05:27:14;;;;;;;20.20;15.30;;;;;;;20.73;60.24;100156.27;129521;1272;107577;-77
2023/07/05 05:30:20;;;;;;;20.70;15.40;;;;;;;20.88;60.19;100158.92;129514;1271;107517;-77
2023/07/05 05:33:25;;;;;;;21.30;15.40;;;;;;;21.05;59.88;100154.70;129480;1270;106759;-77
2023/07/05 05:36:31;;;;;;;19.90;14.80;;;;;;;21.20;59.67;100157.55;129519;1270;107669;-77
2023/07/05 05:39:37;;;;;;;17.80;14.60;;;;;;;21.36;59.31;100158.42;129589;1271;107430;-77
2023/07/05 05:42:42;;;;;;;18.70;14.60;;;;;;;21.49;59.25;100161.30;129520;1271;106851;-77
2023/07/05 05:45:48;;;;;;;18.10;14.10;;;;;;;21.63;58.83;100157.41;129540;1271;106737;-77
2023/07/05 05:48:53;;;;;;;18.50;13.60;;;;;;;21.74;58.55;100160.02;129536;1268;107567;-77
2023/07/05 05:51:59;;;;;;;18.50;13.90;;;;;;;21.87;58.05;100160.31;129530;1270;107600;-77
2023/07/05 05:55:06;;;;;;;18.70;13.10;;;;;;;21.95;57.43;100163.73;129614;1273;107571;-77
2023/07/05 05:58:11;;;;;;;17.20;13.20;;;;;;;22.04;57.69;100164.68;129558;1270;107684;-77
2023/07/05 06:01:19;;;;;;;16.70;12.70;;;;;;;22.13;57.56;100159.61;129541;1271;107245;-77
2023/07/05 06:04:25;;;;;;;16.60;12.80;;;;;;;22.22;57.17;100157.94;129492;1282;106027;-77
2023/07/05 06:07:30;;;;;;;18.60;13.50;;;;;;;22.30;56.91;100160.52;129514;1270;106823;-77
2023/07/05 06:10:36;;;;;;;16.80;12.80;;;;;;;22.35;56.44;100155.80;129561;1276;107528;-77
2023/07/05 06:13:42;;;;;;;20.10;12.20;;;;;;;22.42;56.06;100150.34;129389;1281;107604;-76
2023/07/05 06:16:48;;;;;;;15.80;13.10;;;;;;;22.46;55.89;100147.89;129273;1273;107538;-77
2023/07/05 06:19:53;;;;;;;16.30;13.10;;;;;;;22.53;55.63;100145.64;129365;1268;108164;-77
2023/07/05 06:22:59;;;;;;;15.80;12.90;;;;;;;22.59;55.67;100141.31;129455;1282;107599;-77
2023/07/05 06:26:05;;;;;;;16.90;12.80;;;;;;;22.65;55.34;100139.92;129351;1274;107606;-76
2023/07/05 06:29:11;;;;;;;17.80;12.90;;;;;;;22.70;55.36;100141.20;129363;1273;107557;-76
2023/07/05 06:32:17;;;;;;;15.90;12.60;;;;;;;22.76;54.88;100138.81;129322;1273;107593;-76
2023/07/05 06:35:22;;;;;;;17.00;12.30;;;;;;;22.79;54.71;100141.89;129526;1267;107414;-76
2023/07/05 06:38:28;;;;;;;14.60;11.50;;;;;;;22.83;54.39;100142.64;129568;1270;107541;-77
2023/07/05 06:41:33;;;;;;;19.40;11.70;;;;;;;22.90;54.40;100144.05;129493;1280;107448;-76
2023/07/05 06:44:39;;;;;;;15.00;11.30;;;;;;;22.93;53.32;100142.55;129497;1280;107550;-76
2023/07/05 06:47:45;;;;;;;15.70;11.50;;;;;;;22.96;53.67;100138.20;129485;1270;107490;-77
2023/07/05 06:50:53;;;;;;;14.70;11.60;;;;;;;23.03;53.41;100133.27;129504;1270;107570;-76
2023/07/05 06:53:59;;;;;;;15.40;11.70;;;;;;;23.09;52.90;100132.53;129628;1280;108677;-77
2023/07/05 06:57:05;;;;;;;16.80;12.30;;;;;;;23.14;52.76;100128.92;129520;1281;107572;-77
2023/07/05 07:00:13;;;;;;;15.90;11.40;;;;;;;23.23;52.78;100128.45;129518;1278;106706;-79
2023/07/05 07:03:19;;;;;;;14.00;10.80;;;;;;;23.35;52.75;100128.88;129543;1270;107534;-77
2023/07/05 07:06:24;;;;;;;16.00;10.90;;;;;;;23.46;52.86;100129.44;129455;1272;107456;-78
2023/07/05 07:09:30;;;;;;;13.30;10.50;;;;;;;23.55;52.26;100125.08;129623;1273;107367;-78
2023/07/05 07:12:35;;;;;;;14.30;10.20;;;;;;;23.62;52.00;100119.28;129509;1272;107578;-77
2023/07/05 07:15:41;;;;;;;12.80;10.30;;;;;;;23.72;51.97;100117.30;129494;1274;107288;-77
2023/07/05 07:18:49;;;;;;;13.90;10.20;;;;;;;23.82;51.26;100120.11;129289;1281;107608;-77
2023/07/05 07:21:55;;;;;;;14.30;10.40;;;;;;;23.91;50.76;100118.89;129465;1280;107457;-77
2023/07/05 07:25:00;;;;;;;13.20;10.20;;;;;;;23.98;50.22;100114.70;129460;1279;107408;-78
2023/07/05 07:28:06;;;;;;;13.00;9.70;;;;;;;24.08;49.99;100108.84;129418;1267;107598;-78
2023/07/05 07:31:14;;;;;;;13.00;10.10;;;;;;;24.18;49.70;100109.06;129311;1274;108613;-77
2023/07/05 07:34:20;;;;;;;15.70;10.20;;;;;;;24.25;49.12;100108.20;129491;1273;107599;-77
2023/07/05 07:37:26;;;;;;;13.40;10.20;;;;;;;24.34;48.79;100109.15;129402;1273;107597;-77
2023/07/05 07:40:36;;;;;;;14.50;11.10;;;;;;;24.39;48.85;100105.57;129436;1280;107538;-78
2023/07/05 07:43:42;;;;;;;16.20;11.10;;;;;;;24.45;48.18;100098.96;129378;1274;107315;-77
2023/07/05 07:46:48;;;;;;;12.00;10.20;;;;;;;24.50;48.07;100104.04;129370;1267;107558;-77
2023/07/05 07:49:54;;;;;;;12.30;10.00;;;;;;;24.56;47.68;100105.60;129622;1272;107286;-77
2023/07/05 07:52:59;;;;;;;14.30;10.40;;;;;;;24.58;47.34;100100.89;129498;1274;107582;-77
2023/07/05 07:56:12;;;;;;;12.00;10.70;;;;;;;24.59;47.43;100100.10;129549;1281;107588;-77
2023/07/05 07:59:18;;;;;;;13.90;11.50;;;;;;;24.67;47.15;100100.59;129375;1273;106622;-77
2023/07/05 08:02:23;;;;;;;16.50;11.20;;;;;;;24.78;46.94;100096.05;129428;1282;107678;-77
2023/07/05 08:05:30;;;;;;;13.10;11.00;;;;;;;24.91;46.44;100092.64;129542;1270;107579;-77
2023/07/05 08:08:35;;;;;;;12.40;10.80;;;;;;;25.06;46.48;100094.47;129567;1270;107441;-78
2023/07/05 08:11:41;;;;;;;16.60;11.50;;;;;;;25.22;46.28;100090.97;129500;1270;107552;-77
2023/07/05 08:14:46;;;;;;;13.60;10.90;;;;;;;25.30;46.07;100089.13;129513;1270;107358;-78
2023/07/05 08:17:52;;;;;;;13.70;11.70;;;;;;;25.40;45.88;100087.21;129468;1269;107492;-77
2023/07/05 08:20:58;;;;;;;15.80;11.20;;;;;;;25.45;45.40;100081.66;129455;1273;107553;-77
2023/07/05 08:24:04;;;;;;;12.90;10.70;;;;;;;25.46;45.41;100078.44;129419;1273;108012;-77
2023/07/05 08:27:11;;;;;;;15.50;11.00;;;;;;;25.50;44.99;100077.17;129252;1274;107530;-77
2023/07/05 08:30:17;;;;;;;13.90;11.20;;;;;;;25.50;44.92;100077.56;129204;1268;109396;-77
2023/07/05 08:33:24;;;;;;;12.50;11.00;;;;;;;25.53;44.80;100074.03;129384;1273;107137;-77
2023/07/05 08:36:39;;;;;;;15.20;11.50;;;;;;;25.60;45.00;100068.80;129564;1268;107627;-77
2023/07/05 08:39:45;;;;;;;16.60;11.40;;;;;;;25.65;43.96;100071.64;129452;1272;107629;-78
2023/07/05 08:43:01;;;;;;;14.70;10.90;;;;;;;25.74;43.75;100068.20;129322;1272;107572;-79
2023/07/05 08:46:19;;;;;;;13.00;11.40;;;;;;;25.92;44.02;100063.03;129592;1272;107527;-77
2023/07/05 08:49:28;;;;;;;13.80;11.40;;;;;;;26.09;43.61;100057.27;129325;1267;108917;-80
2023/07/05 08:52:39;;;;;;;13.70;11.40;;;;;;;26.14;43.13;100055.94;129324;1273;107570;-77
2023/07/05 08:55:56;;;;;;;14.10;11.30;;;;;;;26.13;43.00;100056.26;129550;1273;107577;-78
2023/07/05 08:59:15;;;;;;;13.70;11.50;;;;;;;26.12;42.97;100053.95;129465;1268;107739;-77
2023/07/05 09:02:25;;;;;;;13.80;12.10;;;;;;;26.20;43.12;100048.55;129643;1274;107312;-78
2023/07/05 09:05:36;;;;;;;15.00;11.60;;;;;;;26.34;42.96;100045.37;129349;1276;108485;-78
2023/07/05 09:08:52;;;;;;;13.70;11.30;;;;;;;26.53;42.64;100046.31;129280;1280;107571;-78
2023/07/05 09:12:08;;;;;;;14.00;11.50;;;;;;;26.63;42.54;100043.02;129441;1273;107587;-78
2023/07/05 09:15:19;;;;;;;12.90;11.50;;;;;;;26.73;42.26;100039.13;129504;1267;107691;-78
2023/07/05 09:18:35;;;;;;;13.20;11.20;;;;;;;26.75;42.26;100035.85;129512;1273;107272;-78
2023/07/05 09:21:46;;;;;;;14.30;11.60;;;;;;;26.92;41.74;100040.20;129481;1273;107528;-80
2023/07/05 09:24:52;;;;;;;15.70;11.50;;;;;;;27.12;41.66;100040.51;129505;1267;107614;-78
2023/07/05 09:28:09;;;;;;;14.10;12.10;;;;;;;27.17;40.24;100036.36;129405;1273;108011;-78
2023/07/05 09:31:16;;;;;;;12.50;10.80;;;;;;;27.10;40.68;100037.92;129513;1274;107596;-78
2023/07/05 09:34:28;;;;;;;17.80;11.40;;;;;;;27.08;40.85;100036.70;129463;1270;107446;-78
2023/07/05 09:37:36;;;;;;;12.90;11.10;;;;;;;27.14;41.16;100032.35;129547;1280;107446;-78
2023/07/05 09:40:47;;;;;;;13.40;11.40;;;;;;;27.17;40.40;100028.36;129578;1270;108102;-78
2023/07/05 09:43:52;;;;;;;13.70;11.50;;;;;;;27.14;40.44;100023.42;129509;1271;107487;-78
2023/07/05 09:46:59;;;;;;;13.50;12.00;;;;;;;27.21;40.54;100020.11;129488;1270;107562;-78
2023/07/05 09:50:13;;;;;;;14.20;11.30;;;;;;;27.30;40.42;100017.90;129522;1270;107462;-78
2023/07/05 09:53:33;;;;;;;12.30;10.90;;;;;;;27.35;40.42;100018.91;129555;1267;107561;-78
2023/07/05 09:56:57;;;;;;;12.40;10.70;;;;;;;27.43;40.25;100009.83;129470;1267;107345;-78
2023/07/05 10:00:20;;;;;;;13.30;11.30;;;;;;;27.51;40.32;100009.35;129537;1271;107521;-78
2023/07/05 10:03:27;;;;;;;14.00;11.30;;;;;;;27.55;40.13;100006.73;129518;1268;107556;-78
2023/07/05 10:06:33;;;;;;;13.20;11.10;;;;;;;27.63;40.42;100004.11;129302;1273;108613;-78
2023/07/05 10:09:56;;;;;;;13.10;10.50;;;;;;;27.71;40.09;99991.67;129359;1267;108181;-78
2023/07/05 10:13:05;;;;;;;13.50;10.70;;;;;;;27.72;39.60;99993.26;129457;1272;107544;-78
2023/07/05 10:16:11;;;;;;;11.90;10.60;;;;;;;27.81;39.63;99984.77;129418;1267;107638;-78
2023/07/05 10:19:24;;;;;;;12.50;9.90;;;;;;;27.93;40.05;99987.86;129470;1274;107302;-80
2023/07/05 10:22:33;;;;;;;13.80;10.40;;;;;;;28.06;39.24;99989.77;129519;1272;108054;-78
2023/07/05 10:25:41;;;;;;;12.30;9.80;;;;;;;28.13;39.58;99979.72;129342;1273;107426;-78
2023/07/05 10:28:47;;;;;;;12.60;9.80;;;;;;;28.16;39.44;99982.95;129489;1273;107614;-79
2023/07/05 10:31:57;;;;;;;10.70;9.30;;;;;;;28.29;39.38;99985.18;129515;1267;107261;-78
2023/07/05 10:35:09;;;;;;;11.40;9.60;;;;;;;28.40;39.06;99978.35;129560;1279;107726;-78
2023/07/05 10:38:27;;;;;;;10.20;9.00;;;;;;;28.58;39.02;99977.98;129438;1281;107553;-78
2023/07/05 10:41:35;;;;;;;12.00;9.90;;;;;;;28.70;38.66;99965.89;129547;1267;107529;-78
2023/07/05 10:44:40;;;;;;;11.00;9.80;;;;;;;28.65;38.51;99962.92;129484;1271;107427;-78
2023/07/05 10:47:51;;;;;;;11.60;9.90;;;;;;;28.58;38.67;99958.50;129463;1267;107562;-78
2023/07/05 10:50:58;;;;;;;13.50;9.80;;;;;;;28.67;38.42;99957.27;129472;1269;107374;-78
2023/07/05 10:54:09;;;;;;;10.90;9.50;;;;;;;28.83;38.36;99958.85;129528;1273;107511;-77
2023/07/05 10:57:21;;;;;;;12.00;9.00;;;;;;;29.07;38.21;99954.17;129425;1267;108516;-76
2023/07/05 11:00:29;;;;;;;;;;;;;;;29.18;37.97;99950.39;129437;1268;107564;-76
2023/07/05 11:03:42;;;;;;;10.00;8.60;;;;;;;29.07;37.49;99940.59;129402;1273;107041;-76
2023/07/05 11:06:50;;;;;;;10.10;9.00;;;;;;;28.85;38.00;99938.02;129510;1268;107621;-76
2023/07/05 11:09:55;;;;;;;10.20;9.00;;;;;;;28.84;38.03;99933.80;129545;1273;107538;-76
2023/07/05 11:13:01;;;;;;;9.70;8.20;;;;;;;28.87;37.48;99927.35;129497;1270;107589;-76
2023/07/05 11:16:06;;;;;;;9.20;7.80;;;;;;;28.94;37.98;99924.02;129476;1267;107600;-76
2023/07/05 11:19:16;;;;;;;11.00;8.60;;;;;;;29.05;37.76;99924.16;129478;1270;107642;-76
2023/07/05 11:22:43;;;;;;;9.70;8.40;;;;;;;29.11;37.61;99919.84;129504;1267;107610;-76
2023/07/05 11:26:00;;;;;;;9.80;8.70;;;;;;;29.27;37.23;99900.09;129611;1267;107580;-76
2023/07/05 11:29:52;;;;;;;9.60;7.60;;;;;;;29.26;37.01;99914.23;129390;1273;108362;-77
2023/07/05 11:33:17;;;;;;;8.90;7.60;;;;;;;29.08;37.05;99907.13;129481;1270;106953;-76
2023/07/05 11:36:34;;;;;;;10.30;8.50;;;;;;;28.95;37.40;99901.77;129549;1270;107579;-77
2023/07/05 11:39:41;;;;;;;12.40;9.90;;;;;;;28.93;37.62;99897.66;129508;1270;107898;-77
2023/07/05 11:42:47;;;;;;;9.00;8.10;;;;;;;28.93;37.67;99896.16;129489;1271;106084;-83
2023/07/05 11:45:52;;;;;;;9.00;7.60;;;;;;;29.06;37.44;99889.19;129544;1270;107585;-82
2023/07/05 11:49:14;;;;;;;8.00;7.00;;;;;;;29.21;37.01;99878.54;129606;1267;107525;-83
2023/07/05 11:52:24;;;;;;;10.30;7.40;;;;;;;29.30;36.76;99873.80;129485;1270;107438;-77
2023/07/05 11:55:34;;;;;;;8.20;7.30;;;;;;;29.29;36.86;99874.31;129544;1267;107585;-77
2023/07/05 11:58:40;;;;;;;9.40;6.70;;;;;;;29.27;36.92;99863.44;129527;1270;108021;-77
2023/07/05 12:01:47;;;;;;;8.50;6.80;;;;;;;29.23;36.69;99860.27;129462;1267;107470;-77
2023/07/05 12:04:55;;;;;;;7.80;7.00;;;;;;;29.26;36.93;99849.00;129152;1273;107470;-77
2023/07/05 12:08:06;;;;;;;8.90;7.00;;;;;;;29.43;36.89;99845.38;129187;1273;107341;-77
2023/07/05 12:11:14;;;;;;;7.60;6.50;;;;;;;29.45;36.65;99849.48;129197;1273;107741;-77
2023/07/05 12:14:19;;;;;;;6.60;5.60;;;;;;;29.33;36.41;99836.02;129188;1267;107546;-77
2023/07/05 12:17:26;;;;;;;8.20;5.90;;;;;;;29.36;36.32;99833.95;129126;1270;105792;-77
2023/07/05 12:20:38;;;;;;;7.80;6.00;;;;;;;29.46;36.52;99826.39;129386;1270;107530;-77
2023/07/05 12:23:46;;;;;;;7.40;5.90;;;;;;;29.66;36.83;99816.80;129335;1273;108083;-76
2023/07/05 12:26:54;;;;;;;6.70;5.60;;;;;;;29.60;35.67;99815.59;129245;1274;106997;-76
2023/07/05 12:30:04;;;;;;;6.50;5.90;;;;;;;29.58;35.99;99806.54;129267;1273;107781;-77
2023/07/05 12:33:22;;;;;;;9.40;6.60;;;;;;;29.67;36.11;99805.72;129252;1271;107400;-77
2023/07/05 12:36:28;;;;;;;8.00;6.20;;;;;;;29.57;35.83;99805.77;129506;1270;107065;-77
2023/07/05 12:39:34;;;;;;;6.50;5.70;;;;;;;29.40;35.94;99795.34;129379;1270;166941;-77
2023/07/05 12:42:50;;;;;;;8.40;6.40;;;;;;;29.27;36.24;99784.73;129465;1269;107539;-77
2023/07/05 12:46:06;;;;;;;7.40;5.90;;;;;;;29.30;36.54;99785.42;129548;1270;107572;-76
2023/07/05 12:49:20;;;;;;;7.80;5.10;;;;;;;29.50;36.36;99775.05;129384;1271;107602;-77
2023/07/05 12:52:26;;;;;;;5.10;4.40;;;;;;;29.71;36.17;99768.23;129450;1269;107584;-76
2023/07/05 12:55:34;;;;;;;4.90;4.00;;;;;;;29.89;35.89;99769.25;129457;1269;107306;-77
2023/07/05 12:58:50;;;;;;;5.00;3.90;;;;;;;29.92;35.58;99764.98;129410;1270;107558;-77
2023/07/05 13:01:55;;;;;;;7.20;3.80;;;;;;;29.84;35.66;99765.20;129484;1266;106737;-77
2023/07/05 13:05:03;;;;;;;4.60;3.60;;;;;;;29.78;35.40;99759.48;129417;1266;107318;-77
2023/07/05 13:08:11;;;;;;;7.00;3.90;;;;;;;29.84;35.43;99750.90;129524;1267;107559;-77
2023/07/05 13:11:19;;;;;;;4.30;3.50;;;;;;;30.00;35.31;99740.89;129495;1268;107392;-76
2023/07/05 13:14:27;;;;;;;5.30;3.80;;;;;;;30.07;35.40;99741.03;129465;1270;109102;-77
2023/07/05 13:17:32;;;;;;;5.00;3.40;;;;;;;30.07;35.40;99737.51;129442;1267;108135;-76
2023/07/05 13:20:38;;;;;;;5.20;3.60;;;;;;;30.01;35.15;99737.15;129482;1281;106129;-77
2023/07/05 13:23:48;;;;;;;3.90;3.30;;;;;;;29.91;35.20;99736.11;129523;1270;106241;-76
2023/07/05 13:26:55;;;;;;;4.10;3.50;;;;;;;29.83;35.33;99729.17;129490;1270;107578;-76
2023/07/05 13:30:15;;;;;;;4.80;3.30;;;;;;;29.83;35.37;99723.07;129457;1270;107340;-76
2023/07/05 13:33:21;;;;;;;6.30;4.00;;;;;;;29.94;34.95;99720.52;129466;1268;109324;-77
2023/07/05 13:36:28;;;;;;;4.10;3.60;;;;;;;30.07;35.04;99719.52;129382;1266;107562;-77
2023/07/05 13:39:35;;;;;;;3.80;3.40;;;;;;;30.30;34.95;99713.64;129516;1270;106987;-76
2023/07/05 13:42:41;;;;;;;5.10;4.30;;;;;;;30.53;34.63;99705.33;129506;1270;107408;-77
2023/07/05 13:45:47;;;;;;;6.20;4.80;;;;;;;30.58;34.82;99705.09;129525;1270;107598;-77
2023/07/05 13:48:52;;;;;;;5.40;4.70;;;;;;;30.48;34.55;99706.79;129463;1270;107585;-77
2023/07/05 13:52:00;;;;;;;5.40;4.50;;;;;;;30.39;34.92;99704.49;129419;1270;107573;-76
2023/07/05 13:55:07;;;;;;;6.90;4.70;;;;;;;30.28;34.77;99697.10;129569;1270;107575;-76
2023/07/05 13:58:15;;;;;;;5.50;4.70;;;;;;;30.09;35.05;99700.95;129510;1267;107536;-76
2023/07/05 14:01:23;;;;;;;5.30;4.00;;;;;;;29.90;34.89;99701.36;129512;1267;107397;-78
2023/07/05 14:04:28;;;;;;;5.40;3.80;;;;;;;29.80;34.93;99697.98;129459;1270;105965;-76